Crane Gaia — 3FXX2 — position and weather

sailwx.info

Track history (hours):
 
Tides and Currents Weather Stations Pressure Air Temp Water Temp Dewpoint Dewpoint Depression Visibility Wind Speed Wind Dir Waves Ship Positions

Crane Gaia

Last reported at 2015-Jul-05 20:07 UTC. Time now 2015-Jul-07 11:08 UTC.
Position N 34°53' E 140°17'.

Length 115 m; draft 7.2 m.

Type: Tanker. MMSI: 352461000.

Date/timePositionNaut miles runAvg speedWind from/ knotsBaromVisibWave heightAir tempDewpointWater temp
2015-Jul-05 20:07N 34°53' E 140°17'910.2
2015-Jul-05 19:16N 34°58' E 140°25'2110.9
2015-Jul-05 17:22N 35°13' E 140°42'1011.8
2015-Jul-05 16:30N 35°22' E 140°49'2512.6
2015-Jul-05 14:33N 35°45' E 140°60'1312.4
2015-Jul-05 13:32N 35°55' E 140°51'8 8.0
2015-Jul-05 12:33N 35°56' E 140°42'1 0.1
2015-Jul-05 00:09N 35°55' E 140°41'0 0.2
2015-Jul-04 23:33N 35°55' E 140°41'7 6.6
2015-Jul-04 22:33N 36°00' E 140°46'0 0.3
2015-Jul-04 21:32N 35°60' E 140°45'0 0.1
2015-Jul-04 20:32N 35°60' E 140°45'0 0.0
2015-Jul-04 19:32N 35°60' E 140°45'0 0.0
2015-Jul-04 18:32N 35°60' E 140°45'0 0.0
2015-Jul-04 17:29N 35°60' E 140°45'0 0.1
2015-Jul-04 16:31N 35°60' E 140°45'0 0.0
2015-Jul-04 15:32N 35°60' E 140°45'0 0.0
2015-Jul-04 14:23N 35°60' E 140°45'0 0.0
2015-Jul-04 13:20N 35°60' E 140°45'0 0.0
2015-Jul-04 12:32N 35°60' E 140°45'0 0.0
2015-Jul-04 11:14N 35°60' E 140°45'0 0.0
2015-Jul-04 10:31N 35°60' E 140°45'0 0.0
2015-Jul-04 09:32N 35°60' E 140°45'0 0.0
2015-Jul-04 08:26N 35°60' E 140°45'0 0.0
2015-Jul-04 05:26N 35°60' E 140°45'0 0.1
2015-Jul-04 04:32N 35°60' E 140°45'0 0.2
2015-Jul-04 02:33N 36°00' E 140°45'10 9.8
2015-Jul-04 01:31N 35°53' E 140°55'1513.2
2015-Jul-04 00:25N 35°39' E 141°00'1214.2
2015-Jul-03 23:33N 35°28' E 140°54'1514.6
2015-Jul-03 22:33N 35°16' E 140°45'1515.2
2015-Jul-03 21:33N 35°05' E 140°32'1616.1
2015-Jul-03 20:33N 34°57' E 140°15'1616.2
2015-Jul-03 19:33N 34°49' E 139°57'1615.6
2015-Jul-03 18:33N 34°43' E 139°40'  
Track history (hours):
 
Tides and Currents Weather Stations Pressure Air Temp Water Temp Dewpoint Dewpoint Depression Visibility Wind Speed Wind Dir Waves Ship Positions

Crane Gaia

Last reported at 2015-Jul-05 20:07 UTC. Time now 2015-Jul-07 11:08 UTC.
Position N 34°53' E 140°17'.

Length 115 m; draft 7.2 m.

Type: Tanker. MMSI: 352461000.

Date/timePositionNaut miles runAvg speedWind from/ knotsBaromVisibWave heightAir tempDewpointWater temp
2015-Jul-05 20:07N 34°53' E 140°17'910.2
2015-Jul-05 19:16N 34°58' E 140°25'2110.9
2015-Jul-05 17:22N 35°13' E 140°42'1011.8
2015-Jul-05 16:30N 35°22' E 140°49'2512.6
2015-Jul-05 14:33N 35°45' E 140°60'1312.4
2015-Jul-05 13:32N 35°55' E 140°51'8 8.0
2015-Jul-05 12:33N 35°56' E 140°42'1 0.1
2015-Jul-05 00:09N 35°55' E 140°41'0 0.2
2015-Jul-04 23:33N 35°55' E 140°41'7 6.6
2015-Jul-04 22:33N 36°00' E 140°46'0 0.3
2015-Jul-04 21:32N 35°60' E 140°45'0 0.1
2015-Jul-04 20:32N 35°60' E 140°45'0 0.0
2015-Jul-04 19:32N 35°60' E 140°45'0 0.0
2015-Jul-04 18:32N 35°60' E 140°45'0 0.0
2015-Jul-04 17:29N 35°60' E 140°45'0 0.1
2015-Jul-04 16:31N 35°60' E 140°45'0 0.0
2015-Jul-04 15:32N 35°60' E 140°45'0 0.0
2015-Jul-04 14:23N 35°60' E 140°45'0 0.0
2015-Jul-04 13:20N 35°60' E 140°45'0 0.0
2015-Jul-04 12:32N 35°60' E 140°45'0 0.0
2015-Jul-04 11:14N 35°60' E 140°45'0 0.0
2015-Jul-04 10:31N 35°60' E 140°45'0 0.0
2015-Jul-04 09:32N 35°60' E 140°45'0 0.0
2015-Jul-04 08:26N 35°60' E 140°45'0 0.0
2015-Jul-04 05:26N 35°60' E 140°45'0 0.1
2015-Jul-04 04:32N 35°60' E 140°45'0 0.2
2015-Jul-04 02:33N 36°00' E 140°45'10 9.8
2015-Jul-04 01:31N 35°53' E 140°55'1513.2
2015-Jul-04 00:25N 35°39' E 141°00'1214.2
2015-Jul-03 23:33N 35°28' E 140°54'1514.6
2015-Jul-03 22:33N 35°16' E 140°45'1515.2
2015-Jul-03 21:33N 35°05' E 140°32'1616.1
2015-Jul-03 20:33N 34°57' E 140°15'1616.2
2015-Jul-03 19:33N 34°49' E 139°57'1615.6
2015-Jul-03 18:33N 34°43' E 139°40'  

Dump ship's entire track history